sensor_id;sensor_type;location;lat;lon;timestamp;P1;durP1;ratioP1;P2;durP2;ratioP2
55720;SDS011;41626;53.098;6.168;2023-05-02T00:00:08;14.43;;;4.53;;
55720;SDS011;41626;53.098;6.168;2023-05-02T00:02:34;13.75;;;4.70;;
55720;SDS011;41626;53.098;6.168;2023-05-02T00:05:00;12.07;;;3.83;;
55720;SDS011;41626;53.098;6.168;2023-05-02T00:07:26;7.43;;;3.30;;
55720;SDS011;41626;53.098;6.168;2023-05-02T00:09:52;14.63;;;4.55;;
55720;SDS011;41626;53.098;6.168;2023-05-02T00:12:17;11.40;;;3.22;;
55720;SDS011;41626;53.098;6.168;2023-05-02T00:14:43;13.43;;;3.45;;
55720;SDS011;41626;53.098;6.168;2023-05-02T00:17:15;13.33;;;3.30;;
55720;SDS011;41626;53.098;6.168;2023-05-02T00:19:42;9.95;;;3.78;;
55720;SDS011;41626;53.098;6.168;2023-05-02T00:22:08;13.63;;;4.20;;
55720;SDS011;41626;53.098;6.168;2023-05-02T00:24:33;10.48;;;3.40;;
55720;SDS011;41626;53.098;6.168;2023-05-02T00:26:59;12.32;;;3.88;;
55720;SDS011;41626;53.098;6.168;2023-05-02T00:29:25;14.70;;;3.28;;
55720;SDS011;41626;53.098;6.168;2023-05-02T00:31:50;9.70;;;2.78;;
55720;SDS011;41626;53.098;6.168;2023-05-02T00:34:16;9.77;;;3.10;;
55720;SDS011;41626;53.098;6.168;2023-05-02T00:36:42;10.07;;;3.17;;
55720;SDS011;41626;53.098;6.168;2023-05-02T00:39:07;10.33;;;2.90;;
55720;SDS011;41626;53.098;6.168;2023-05-02T00:41:33;12.57;;;2.90;;
55720;SDS011;41626;53.098;6.168;2023-05-02T00:43:59;9.40;;;2.63;;
55720;SDS011;41626;53.098;6.168;2023-05-02T00:46:25;8.27;;;2.97;;
55720;SDS011;41626;53.098;6.168;2023-05-02T00:48:51;9.50;;;3.15;;
55720;SDS011;41626;53.098;6.168;2023-05-02T00:51:16;12.60;;;3.20;;
55720;SDS011;41626;53.098;6.168;2023-05-02T00:53:42;8.55;;;3.08;;
55720;SDS011;41626;53.098;6.168;2023-05-02T00:56:08;10.00;;;2.90;;
55720;SDS011;41626;53.098;6.168;2023-05-02T00:58:34;8.00;;;3.40;;
55720;SDS011;41626;53.098;6.168;2023-05-02T01:15:03;6.90;;;2.80;;
55720;SDS011;41626;53.098;6.168;2023-05-02T01:17:31;6.72;;;2.78;;
55720;SDS011;41626;53.098;6.168;2023-05-02T01:20:04;6.07;;;2.58;;
55720;SDS011;41626;53.098;6.168;2023-05-02T01:22:32;9.18;;;3.33;;
55720;SDS011;41626;53.098;6.168;2023-05-02T01:30:12;14.90;;;4.43;;
55720;SDS011;41626;53.098;6.168;2023-05-02T01:32:40;18.95;;;5.80;;
55720;SDS011;41626;53.098;6.168;2023-05-02T01:35:09;22.30;;;5.05;;
55720;SDS011;41626;53.098;6.168;2023-05-02T01:37:37;23.52;;;5.75;;
55720;SDS011;41626;53.098;6.168;2023-05-02T01:40:05;20.55;;;5.80;;
55720;SDS011;41626;53.098;6.168;2023-05-02T01:42:33;21.17;;;4.43;;
55720;SDS011;41626;53.098;6.168;2023-05-02T01:45:01;19.30;;;5.88;;
55720;SDS011;41626;53.098;6.168;2023-05-02T01:47:29;18.40;;;4.97;;
55720;SDS011;41626;53.098;6.168;2023-05-02T01:49:57;19.00;;;5.18;;
55720;SDS011;41626;53.098;6.168;2023-05-02T01:52:24;17.20;;;5.35;;
55720;SDS011;41626;53.098;6.168;2023-05-02T01:54:51;20.52;;;4.13;;
55720;SDS011;41626;53.098;6.168;2023-05-02T01:57:19;17.27;;;5.57;;
55720;SDS011;41626;53.098;6.168;2023-05-02T01:59:45;21.02;;;5.72;;
55720;SDS011;41626;53.098;6.168;2023-05-02T02:02:12;22.40;;;4.75;;
55720;SDS011;41626;53.098;6.168;2023-05-02T02:04:39;22.60;;;5.43;;
55720;SDS011;41626;53.098;6.168;2023-05-02T02:07:07;20.85;;;6.00;;
55720;SDS011;41626;53.098;6.168;2023-05-02T02:09:38;21.42;;;5.90;;
55720;SDS011;41626;53.098;6.168;2023-05-02T02:12:06;20.20;;;4.65;;
55720;SDS011;41626;53.098;6.168;2023-05-02T02:14:36;23.05;;;6.63;;
55720;SDS011;41626;53.098;6.168;2023-05-02T02:17:14;21.63;;;5.85;;
55720;SDS011;41626;53.098;6.168;2023-05-02T02:19:48;22.25;;;6.20;;
55720;SDS011;41626;53.098;6.168;2023-05-02T02:22:17;22.23;;;6.15;;
55720;SDS011;41626;53.098;6.168;2023-05-02T02:24:45;24.85;;;6.03;;
55720;SDS011;41626;53.098;6.168;2023-05-02T02:27:12;19.30;;;6.47;;
55720;SDS011;41626;53.098;6.168;2023-05-02T02:29:38;24.42;;;5.93;;
55720;SDS011;41626;53.098;6.168;2023-05-02T02:32:04;23.35;;;6.35;;
55720;SDS011;41626;53.098;6.168;2023-05-02T02:34:30;21.13;;;4.93;;
55720;SDS011;41626;53.098;6.168;2023-05-02T02:36:57;18.27;;;5.05;;
55720;SDS011;41626;53.098;6.168;2023-05-02T02:39:50;15.82;;;5.15;;
55720;SDS011;41626;53.098;6.168;2023-05-02T02:42:46;19.85;;;5.47;;
55720;SDS011;41626;53.098;6.168;2023-05-02T02:45:29;30.10;;;5.30;;
55720;SDS011;41626;53.098;6.168;2023-05-02T02:50:50;20.52;;;5.45;;
55720;SDS011;41626;53.098;6.168;2023-05-02T02:53:26;22.90;;;4.95;;
55720;SDS011;41626;53.098;6.168;2023-05-02T02:56:25;19.30;;;4.60;;
55720;SDS011;41626;53.098;6.168;2023-05-02T02:59:12;17.33;;;4.30;;
55720;SDS011;41626;53.098;6.168;2023-05-02T03:01:59;18.45;;;5.53;;
55720;SDS011;41626;53.098;6.168;2023-05-02T03:04:30;21.08;;;5.80;;
55720;SDS011;41626;53.098;6.168;2023-05-02T03:06:58;18.25;;;4.47;;
55720;SDS011;41626;53.098;6.168;2023-05-02T03:09:25;18.13;;;4.45;;
55720;SDS011;41626;53.098;6.168;2023-05-02T03:11:54;20.13;;;4.65;;
55720;SDS011;41626;53.098;6.168;2023-05-02T03:14:21;17.80;;;4.55;;
55720;SDS011;41626;53.098;6.168;2023-05-02T03:16:47;17.15;;;4.20;;
55720;SDS011;41626;53.098;6.168;2023-05-02T03:19:14;19.58;;;4.30;;
55720;SDS011;41626;53.098;6.168;2023-05-02T03:21:39;17.30;;;5.05;;
55720;SDS011;41626;53.098;6.168;2023-05-02T03:24:05;15.05;;;4.40;;
55720;SDS011;41626;53.098;6.168;2023-05-02T03:26:31;14.73;;;3.83;;
55720;SDS011;41626;53.098;6.168;2023-05-02T03:28:57;13.95;;;3.88;;
55720;SDS011;41626;53.098;6.168;2023-05-02T03:31:22;17.75;;;3.47;;
55720;SDS011;41626;53.098;6.168;2023-05-02T03:33:48;18.60;;;5.80;;
55720;SDS011;41626;53.098;6.168;2023-05-02T03:36:14;21.02;;;4.00;;
55720;SDS011;41626;53.098;6.168;2023-05-02T03:38:40;11.38;;;3.58;;
55720;SDS011;41626;53.098;6.168;2023-05-02T03:41:06;12.50;;;4.27;;
55720;SDS011;41626;53.098;6.168;2023-05-02T03:43:31;10.13;;;3.70;;
55720;SDS011;41626;53.098;6.168;2023-05-02T03:46:02;15.57;;;3.20;;
55720;SDS011;41626;53.098;6.168;2023-05-02T03:48:30;10.45;;;2.90;;
55720;SDS011;41626;53.098;6.168;2023-05-02T03:50:56;13.07;;;3.47;;
55720;SDS011;41626;53.098;6.168;2023-05-02T03:53:21;13.83;;;2.67;;
55720;SDS011;41626;53.098;6.168;2023-05-02T03:55:47;11.33;;;3.70;;
55720;SDS011;41626;53.098;6.168;2023-05-02T03:58:13;10.63;;;2.37;;
55720;SDS011;41626;53.098;6.168;2023-05-02T04:00:38;19.67;;;4.83;;
55720;SDS011;41626;53.098;6.168;2023-05-02T04:03:04;11.37;;;3.23;;
55720;SDS011;41626;53.098;6.168;2023-05-02T04:05:31;16.88;;;3.55;;
55720;SDS011;41626;53.098;6.168;2023-05-02T04:07:57;11.90;;;2.63;;
55720;SDS011;41626;53.098;6.168;2023-05-02T04:10:22;10.20;;;2.67;;
55720;SDS011;41626;53.098;6.168;2023-05-02T04:12:48;12.60;;;2.40;;
55720;SDS011;41626;53.098;6.168;2023-05-02T04:15:14;9.75;;;3.00;;
55720;SDS011;41626;53.098;6.168;2023-05-02T04:17:40;9.77;;;2.07;;
55720;SDS011;41626;53.098;6.168;2023-05-02T04:20:06;7.70;;;2.40;;
55720;SDS011;41626;53.098;6.168;2023-05-02T04:22:33;7.15;;;1.75;;
55720;SDS011;41626;53.098;6.168;2023-05-02T04:24:59;11.32;;;2.30;;
55720;SDS011;41626;53.098;6.168;2023-05-02T04:27:25;6.88;;;2.28;;
55720;SDS011;41626;53.098;6.168;2023-05-02T04:29:51;7.68;;;2.35;;
55720;SDS011;41626;53.098;6.168;2023-05-02T04:32:18;10.38;;;2.08;;
55720;SDS011;41626;53.098;6.168;2023-05-02T04:34:44;11.27;;;2.50;;
55720;SDS011;41626;53.098;6.168;2023-05-02T04:37:10;7.80;;;1.92;;
55720;SDS011;41626;53.098;6.168;2023-05-02T04:39:35;9.52;;;2.63;;
55720;SDS011;41626;53.098;6.168;2023-05-02T04:42:01;11.10;;;3.38;;
55720;SDS011;41626;53.098;6.168;2023-05-02T04:44:27;6.47;;;1.63;;
55720;SDS011;41626;53.098;6.168;2023-05-02T04:46:53;6.07;;;2.03;;
55720;SDS011;41626;53.098;6.168;2023-05-02T04:49:18;9.27;;;2.27;;
55720;SDS011;41626;53.098;6.168;2023-05-02T04:51:44;10.50;;;2.47;;
55720;SDS011;41626;53.098;6.168;2023-05-02T04:54:10;9.88;;;2.80;;
55720;SDS011;41626;53.098;6.168;2023-05-02T04:56:36;9.75;;;2.10;;
55720;SDS011;41626;53.098;6.168;2023-05-02T04:59:02;5.97;;;1.73;;
55720;SDS011;41626;53.098;6.168;2023-05-02T05:01:28;5.82;;;2.20;;
55720;SDS011;41626;53.098;6.168;2023-05-02T05:03:54;8.10;;;2.33;;
55720;SDS011;41626;53.098;6.168;2023-05-02T05:06:20;10.93;;;2.90;;
55720;SDS011;41626;53.098;6.168;2023-05-02T05:08:46;9.30;;;2.53;;
55720;SDS011;41626;53.098;6.168;2023-05-02T05:11:12;9.40;;;2.43;;
55720;SDS011;41626;53.098;6.168;2023-05-02T05:13:39;10.52;;;2.80;;
55720;SDS011;41626;53.098;6.168;2023-05-02T05:16:06;13.63;;;3.97;;
55720;SDS011;41626;53.098;6.168;2023-05-02T05:18:32;9.93;;;2.58;;
55720;SDS011;41626;53.098;6.168;2023-05-02T05:21:04;8.88;;;2.33;;
55720;SDS011;41626;53.098;6.168;2023-05-02T05:23:34;9.88;;;2.40;;
55720;SDS011;41626;53.098;6.168;2023-05-02T05:26:10;11.38;;;2.92;;
55720;SDS011;41626;53.098;6.168;2023-05-02T05:28:37;7.45;;;1.92;;
55720;SDS011;41626;53.098;6.168;2023-05-02T05:31:12;13.00;;;2.50;;
55720;SDS011;41626;53.098;6.168;2023-05-02T05:33:41;10.55;;;2.97;;
55720;SDS011;41626;53.098;6.168;2023-05-02T05:36:07;7.00;;;2.00;;
55720;SDS011;41626;53.098;6.168;2023-05-02T05:38:34;11.90;;;2.85;;
55720;SDS011;41626;53.098;6.168;2023-05-02T05:41:00;8.23;;;2.57;;
55720;SDS011;41626;53.098;6.168;2023-05-02T05:43:26;7.37;;;2.40;;
55720;SDS011;41626;53.098;6.168;2023-05-02T05:45:52;10.63;;;2.85;;
55720;SDS011;41626;53.098;6.168;2023-05-02T05:48:18;9.07;;;2.40;;
55720;SDS011;41626;53.098;6.168;2023-05-02T05:50:44;14.55;;;2.90;;
55720;SDS011;41626;53.098;6.168;2023-05-02T05:53:10;10.43;;;2.63;;
55720;SDS011;41626;53.098;6.168;2023-05-02T05:55:35;5.85;;;2.08;;
55720;SDS011;41626;53.098;6.168;2023-05-02T05:58:02;7.28;;;2.00;;
55720;SDS011;41626;53.098;6.168;2023-05-02T06:00:28;12.35;;;2.97;;
55720;SDS011;41626;53.098;6.168;2023-05-02T06:02:54;8.60;;;2.33;;
55720;SDS011;41626;53.098;6.168;2023-05-02T06:05:20;8.93;;;1.90;;
55720;SDS011;41626;53.098;6.168;2023-05-02T06:07:46;7.80;;;2.73;;
55720;SDS011;41626;53.098;6.168;2023-05-02T06:10:11;13.10;;;2.33;;
55720;SDS011;41626;53.098;6.168;2023-05-02T06:12:37;9.83;;;2.90;;
55720;SDS011;41626;53.098;6.168;2023-05-02T06:15:03;10.70;;;3.17;;
55720;SDS011;41626;53.098;6.168;2023-05-02T06:17:29;11.90;;;2.80;;
55720;SDS011;41626;53.098;6.168;2023-05-02T06:19:55;9.75;;;2.63;;
55720;SDS011;41626;53.098;6.168;2023-05-02T06:22:20;8.43;;;2.60;;
55720;SDS011;41626;53.098;6.168;2023-05-02T06:24:46;9.25;;;3.05;;
55720;SDS011;41626;53.098;6.168;2023-05-02T06:27:12;13.60;;;3.58;;
55720;SDS011;41626;53.098;6.168;2023-05-02T06:29:37;11.73;;;2.63;;
55720;SDS011;41626;53.098;6.168;2023-05-02T06:32:03;8.73;;;2.50;;
55720;SDS011;41626;53.098;6.168;2023-05-02T06:34:32;9.60;;;3.28;;
55720;SDS011;41626;53.098;6.168;2023-05-02T06:36:58;9.88;;;2.50;;
55720;SDS011;41626;53.098;6.168;2023-05-02T06:39:23;10.20;;;2.53;;
55720;SDS011;41626;53.098;6.168;2023-05-02T06:41:49;9.52;;;3.08;;
55720;SDS011;41626;53.098;6.168;2023-05-02T06:44:15;12.50;;;2.90;;
55720;SDS011;41626;53.098;6.168;2023-05-02T06:46:41;11.73;;;2.63;;
55720;SDS011;41626;53.098;6.168;2023-05-02T06:49:07;10.85;;;2.72;;
55720;SDS011;41626;53.098;6.168;2023-05-02T06:51:33;13.43;;;4.00;;
55720;SDS011;41626;53.098;6.168;2023-05-02T06:53:58;9.97;;;2.87;;
55720;SDS011;41626;53.098;6.168;2023-05-02T06:56:24;10.63;;;2.57;;
55720;SDS011;41626;53.098;6.168;2023-05-02T06:58:50;9.90;;;3.10;;
55720;SDS011;41626;53.098;6.168;2023-05-02T07:01:16;10.50;;;3.05;;
55720;SDS011;41626;53.098;6.168;2023-05-02T07:03:42;13.55;;;3.58;;
55720;SDS011;41626;53.098;6.168;2023-05-02T07:06:10;11.73;;;3.85;;
55720;SDS011;41626;53.098;6.168;2023-05-02T07:08:36;9.85;;;3.33;;
55720;SDS011;41626;53.098;6.168;2023-05-02T07:11:02;11.55;;;2.78;;
55720;SDS011;41626;53.098;6.168;2023-05-02T07:13:28;13.05;;;2.60;;
55720;SDS011;41626;53.098;6.168;2023-05-02T07:15:54;10.90;;;3.33;;
55720;SDS011;41626;53.098;6.168;2023-05-02T07:18:20;15.45;;;3.35;;
55720;SDS011;41626;53.098;6.168;2023-05-02T07:20:46;9.18;;;3.10;;
55720;SDS011;41626;53.098;6.168;2023-05-02T07:23:12;9.50;;;2.92;;
55720;SDS011;41626;53.098;6.168;2023-05-02T07:25:37;11.30;;;2.92;;
55720;SDS011;41626;53.098;6.168;2023-05-02T07:28:04;10.82;;;2.80;;
55720;SDS011;41626;53.098;6.168;2023-05-02T07:30:30;13.45;;;3.45;;
55720;SDS011;41626;53.098;6.168;2023-05-02T07:32:55;8.65;;;2.70;;
55720;SDS011;41626;53.098;6.168;2023-05-02T07:35:21;9.20;;;2.47;;
55720;SDS011;41626;53.098;6.168;2023-05-02T07:37:47;9.03;;;3.20;;
55720;SDS011;41626;53.098;6.168;2023-05-02T07:40:12;9.07;;;3.03;;
55720;SDS011;41626;53.098;6.168;2023-05-02T07:42:38;11.57;;;2.57;;
55720;SDS011;41626;53.098;6.168;2023-05-02T07:45:06;13.13;;;3.15;;
55720;SDS011;41626;53.098;6.168;2023-05-02T07:47:32;10.90;;;3.13;;
55720;SDS011;41626;53.098;6.168;2023-05-02T07:49:58;6.40;;;2.47;;
55720;SDS011;41626;53.098;6.168;2023-05-02T07:52:23;10.30;;;3.78;;
55720;SDS011;41626;53.098;6.168;2023-05-02T07:54:50;11.80;;;2.80;;
55720;SDS011;41626;53.098;6.168;2023-05-02T07:57:16;9.70;;;2.77;;
55720;SDS011;41626;53.098;6.168;2023-05-02T07:59:42;9.68;;;3.45;;
55720;SDS011;41626;53.098;6.168;2023-05-02T08:02:08;7.65;;;3.00;;
55720;SDS011;41626;53.098;6.168;2023-05-02T08:04:35;9.73;;;3.08;;
55720;SDS011;41626;53.098;6.168;2023-05-02T08:07:00;9.07;;;2.33;;
55720;SDS011;41626;53.098;6.168;2023-05-02T08:09:27;10.03;;;2.70;;
55720;SDS011;41626;53.098;6.168;2023-05-02T08:11:53;12.13;;;3.13;;
55720;SDS011;41626;53.098;6.168;2023-05-02T08:14:18;9.07;;;1.98;;
55720;SDS011;41626;53.098;6.168;2023-05-02T08:16:44;11.77;;;2.85;;
55720;SDS011;41626;53.098;6.168;2023-05-02T08:19:10;9.07;;;2.13;;
55720;SDS011;41626;53.098;6.168;2023-05-02T08:21:35;10.33;;;3.40;;
55720;SDS011;41626;53.098;6.168;2023-05-02T08:24:01;7.83;;;2.70;;
55720;SDS011;41626;53.098;6.168;2023-05-02T08:26:27;14.07;;;3.37;;
55720;SDS011;41626;53.098;6.168;2023-05-02T08:28:53;8.50;;;2.63;;
55720;SDS011;41626;53.098;6.168;2023-05-02T08:31:19;6.47;;;1.90;;
55720;SDS011;41626;53.098;6.168;2023-05-02T08:33:45;10.02;;;2.85;;
55720;SDS011;41626;53.098;6.168;2023-05-02T08:36:15;6.97;;;1.90;;
55720;SDS011;41626;53.098;6.168;2023-05-02T08:38:42;7.20;;;2.05;;
55720;SDS011;41626;53.098;6.168;2023-05-02T08:41:09;9.83;;;1.80;;
55720;SDS011;41626;53.098;6.168;2023-05-02T08:43:36;7.10;;;2.17;;
55720;SDS011;41626;53.098;6.168;2023-05-02T08:46:05;9.60;;;1.90;;
55720;SDS011;41626;53.098;6.168;2023-05-02T08:48:34;7.80;;;2.42;;
55720;SDS011;41626;53.098;6.168;2023-05-02T08:51:01;5.50;;;1.70;;
55720;SDS011;41626;53.098;6.168;2023-05-02T08:53:28;4.80;;;1.55;;
55720;SDS011;41626;53.098;6.168;2023-05-02T08:55:58;2.60;;;1.02;;
55720;SDS011;41626;53.098;6.168;2023-05-02T08:58:24;6.68;;;1.88;;
55720;SDS011;41626;53.098;6.168;2023-05-02T09:00:50;7.53;;;1.67;;
55720;SDS011;41626;53.098;6.168;2023-05-02T09:08:27;5.95;;;1.50;;
55720;SDS011;41626;53.098;6.168;2023-05-02T09:10:53;8.90;;;1.30;;
55720;SDS011;41626;53.098;6.168;2023-05-02T09:13:35;5.07;;;1.10;;
55720;SDS011;41626;53.098;6.168;2023-05-02T09:18:38;4.07;;;1.35;;
55720;SDS011;41626;53.098;6.168;2023-05-02T09:21:05;5.43;;;1.27;;
55720;SDS011;41626;53.098;6.168;2023-05-02T09:23:33;4.40;;;0.70;;
55720;SDS011;41626;53.098;6.168;2023-05-02T09:26:13;6.00;;;1.25;;
55720;SDS011;41626;53.098;6.168;2023-05-02T09:28:44;4.30;;;1.40;;
55720;SDS011;41626;53.098;6.168;2023-05-02T09:31:12;7.10;;;1.52;;
55720;SDS011;41626;53.098;6.168;2023-05-02T09:33:39;6.13;;;1.40;;
55720;SDS011;41626;53.098;6.168;2023-05-02T09:36:06;5.47;;;1.38;;
55720;SDS011;41626;53.098;6.168;2023-05-02T09:38:35;7.78;;;1.42;;
55720;SDS011;41626;53.098;6.168;2023-05-02T09:41:02;4.07;;;1.27;;
55720;SDS011;41626;53.098;6.168;2023-05-02T09:43:28;8.07;;;1.73;;
55720;SDS011;41626;53.098;6.168;2023-05-02T09:45:58;8.73;;;1.70;;
55720;SDS011;41626;53.098;6.168;2023-05-02T09:48:29;6.53;;;0.88;;
55720;SDS011;41626;53.098;6.168;2023-05-02T09:50:55;5.25;;;1.75;;
55720;SDS011;41626;53.098;6.168;2023-05-02T09:53:23;9.32;;;1.80;;
55720;SDS011;41626;53.098;6.168;2023-05-02T09:55:58;4.83;;;1.10;;
55720;SDS011;41626;53.098;6.168;2023-05-02T09:58:25;4.35;;;1.15;;
55720;SDS011;41626;53.098;6.168;2023-05-02T10:00:51;5.30;;;1.02;;
55720;SDS011;41626;53.098;6.168;2023-05-02T10:03:17;2.58;;;1.02;;
55720;SDS011;41626;53.098;6.168;2023-05-02T10:05:44;7.32;;;1.50;;
55720;SDS011;41626;53.098;6.168;2023-05-02T10:08:11;6.40;;;2.00;;
55720;SDS011;41626;53.098;6.168;2023-05-02T10:10:38;5.30;;;1.52;;
55720;SDS011;41626;53.098;6.168;2023-05-02T10:13:06;4.95;;;1.33;;
55720;SDS011;41626;53.098;6.168;2023-05-02T10:15:33;6.80;;;1.40;;
55720;SDS011;41626;53.098;6.168;2023-05-02T10:18:13;14.85;;;1.80;;
55720;SDS011;41626;53.098;6.168;2023-05-02T10:20:57;5.18;;;2.05;;
55720;SDS011;41626;53.098;6.168;2023-05-02T10:23:28;4.72;;;1.30;;
55720;SDS011;41626;53.098;6.168;2023-05-02T10:25:55;3.47;;;1.23;;
55720;SDS011;41626;53.098;6.168;2023-05-02T10:28:22;5.03;;;1.10;;
55720;SDS011;41626;53.098;6.168;2023-05-02T10:30:49;5.22;;;1.67;;
55720;SDS011;41626;53.098;6.168;2023-05-02T10:33:16;8.57;;;2.13;;
55720;SDS011;41626;53.098;6.168;2023-05-02T10:35:44;4.00;;;1.10;;
55720;SDS011;41626;53.098;6.168;2023-05-02T10:38:17;6.07;;;1.37;;
55720;SDS011;41626;53.098;6.168;2023-05-02T10:40:49;4.57;;;1.50;;
55720;SDS011;41626;53.098;6.168;2023-05-02T10:43:26;4.03;;;1.30;;
55720;SDS011;41626;53.098;6.168;2023-05-02T10:45:58;4.68;;;1.00;;
55720;SDS011;41626;53.098;6.168;2023-05-02T10:48:26;3.42;;;1.08;;
55720;SDS011;41626;53.098;6.168;2023-05-02T10:50:56;6.93;;;1.20;;
55720;SDS011;41626;53.098;6.168;2023-05-02T10:53:32;6.25;;;1.17;;
55720;SDS011;41626;53.098;6.168;2023-05-02T10:56:19;6.80;;;1.90;;
55720;SDS011;41626;53.098;6.168;2023-05-02T10:58:49;5.82;;;1.13;;
55720;SDS011;41626;53.098;6.168;2023-05-02T11:04:10;7.57;;;1.33;;
55720;SDS011;41626;53.098;6.168;2023-05-02T11:11:53;6.45;;;2.05;;
55720;SDS011;41626;53.098;6.168;2023-05-02T11:19:24;5.13;;;1.73;;
55720;SDS011;41626;53.098;6.168;2023-05-02T11:21:50;6.27;;;1.17;;
55720;SDS011;41626;53.098;6.168;2023-05-02T11:32:21;5.88;;;1.40;;
55720;SDS011;41626;53.098;6.168;2023-05-02T11:34:47;5.72;;;1.58;;
55720;SDS011;41626;53.098;6.168;2023-05-02T11:37:17;6.18;;;2.80;;
55720;SDS011;41626;53.098;6.168;2023-05-02T11:39:45;2.20;;;0.85;;
55720;SDS011;41626;53.098;6.168;2023-05-02T11:42:30;5.50;;;0.90;;
55720;SDS011;41626;53.098;6.168;2023-05-02T11:44:57;2.95;;;1.00;;
55720;SDS011;41626;53.098;6.168;2023-05-02T11:47:24;4.53;;;1.27;;
55720;SDS011;41626;53.098;6.168;2023-05-02T11:49:53;5.57;;;1.80;;
55720;SDS011;41626;53.098;6.168;2023-05-02T11:52:21;5.87;;;1.00;;
55720;SDS011;41626;53.098;6.168;2023-05-02T11:54:48;3.72;;;1.42;;
55720;SDS011;41626;53.098;6.168;2023-05-02T11:57:14;5.82;;;1.52;;
55720;SDS011;41626;53.098;6.168;2023-05-02T11:59:50;7.47;;;1.67;;
55720;SDS011;41626;53.098;6.168;2023-05-02T12:02:19;4.03;;;1.30;;
55720;SDS011;41626;53.098;6.168;2023-05-02T12:05:00;5.15;;;1.40;;
55720;SDS011;41626;53.098;6.168;2023-05-02T12:07:34;4.60;;;1.38;;
55720;SDS011;41626;53.098;6.168;2023-05-02T12:10:04;4.47;;;1.45;;
55720;SDS011;41626;53.098;6.168;2023-05-02T12:12:30;3.80;;;1.20;;
55720;SDS011;41626;53.098;6.168;2023-05-02T12:14:56;6.13;;;1.40;;
55720;SDS011;41626;53.098;6.168;2023-05-02T12:17:23;5.15;;;1.38;;
55720;SDS011;41626;53.098;6.168;2023-05-02T12:19:49;4.20;;;1.80;;
55720;SDS011;41626;53.098;6.168;2023-05-02T12:22:15;6.45;;;1.33;;
55720;SDS011;41626;53.098;6.168;2023-05-02T12:24:41;3.87;;;1.00;;
55720;SDS011;41626;53.098;6.168;2023-05-02T12:27:09;8.07;;;1.30;;
55720;SDS011;41626;53.098;6.168;2023-05-02T12:29:41;4.72;;;1.08;;
55720;SDS011;41626;53.098;6.168;2023-05-02T12:32:09;2.47;;;0.95;;
55720;SDS011;41626;53.098;6.168;2023-05-02T12:34:35;7.13;;;2.38;;
55720;SDS011;41626;53.098;6.168;2023-05-02T12:37:03;4.90;;;0.93;;
55720;SDS011;41626;53.098;6.168;2023-05-02T12:39:39;10.95;;;2.65;;
55720;SDS011;41626;53.098;6.168;2023-05-02T12:42:13;3.97;;;1.10;;
55720;SDS011;41626;53.098;6.168;2023-05-02T12:44:41;3.80;;;0.90;;
55720;SDS011;41626;53.098;6.168;2023-05-02T12:47:12;4.47;;;0.93;;
55720;SDS011;41626;53.098;6.168;2023-05-02T12:55:22;1.88;;;0.93;;
55720;SDS011;41626;53.098;6.168;2023-05-02T12:57:49;1.75;;;0.65;;
55720;SDS011;41626;53.098;6.168;2023-05-02T13:00:23;2.72;;;0.70;;
55720;SDS011;41626;53.098;6.168;2023-05-02T13:02:49;0.93;;;0.63;;
55720;SDS011;41626;53.098;6.168;2023-05-02T13:05:15;3.65;;;0.95;;
55720;SDS011;41626;53.098;6.168;2023-05-02T13:07:41;4.43;;;1.05;;
55720;SDS011;41626;53.098;6.168;2023-05-02T13:10:07;3.50;;;1.17;;
55720;SDS011;41626;53.098;6.168;2023-05-02T13:12:33;4.80;;;1.30;;
55720;SDS011;41626;53.098;6.168;2023-05-02T13:15:04;4.00;;;1.37;;
55720;SDS011;41626;53.098;6.168;2023-05-02T13:17:31;8.95;;;1.83;;
55720;SDS011;41626;53.098;6.168;2023-05-02T13:20:00;5.32;;;1.67;;
55720;SDS011;41626;53.098;6.168;2023-05-02T13:22:26;6.00;;;1.85;;
55720;SDS011;41626;53.098;6.168;2023-05-02T13:24:52;2.92;;;1.13;;
55720;SDS011;41626;53.098;6.168;2023-05-02T13:27:18;4.07;;;1.10;;
55720;SDS011;41626;53.098;6.168;2023-05-02T13:29:47;29.33;;;2.03;;
55720;SDS011;41626;53.098;6.168;2023-05-02T13:32:13;3.80;;;1.05;;
55720;SDS011;41626;53.098;6.168;2023-05-02T13:34:39;6.57;;;1.17;;
55720;SDS011;41626;53.098;6.168;2023-05-02T13:37:05;3.80;;;1.40;;
55720;SDS011;41626;53.098;6.168;2023-05-02T13:39:30;4.93;;;1.07;;
55720;SDS011;41626;53.098;6.168;2023-05-02T13:41:56;4.20;;;0.80;;
55720;SDS011;41626;53.098;6.168;2023-05-02T13:44:21;3.70;;;1.03;;
55720;SDS011;41626;53.098;6.168;2023-05-02T13:46:47;3.75;;;0.60;;
55720;SDS011;41626;53.098;6.168;2023-05-02T13:49:13;5.32;;;0.70;;
55720;SDS011;41626;53.098;6.168;2023-05-02T13:51:38;4.68;;;0.80;;
55720;SDS011;41626;53.098;6.168;2023-05-02T13:54:04;3.08;;;0.70;;
55720;SDS011;41626;53.098;6.168;2023-05-02T13:56:30;3.55;;;1.05;;
55720;SDS011;41626;53.098;6.168;2023-05-02T13:58:56;3.08;;;1.13;;
55720;SDS011;41626;53.098;6.168;2023-05-02T14:01:21;4.87;;;0.90;;
55720;SDS011;41626;53.098;6.168;2023-05-02T14:03:49;5.45;;;0.95;;
55720;SDS011;41626;53.098;6.168;2023-05-02T14:06:14;3.80;;;0.90;;
55720;SDS011;41626;53.098;6.168;2023-05-02T14:08:40;3.53;;;0.63;;
55720;SDS011;41626;53.098;6.168;2023-05-02T14:11:06;3.72;;;0.95;;
55720;SDS011;41626;53.098;6.168;2023-05-02T14:13:31;1.73;;;0.50;;
55720;SDS011;41626;53.098;6.168;2023-05-02T14:15:57;4.37;;;0.97;;
55720;SDS011;41626;53.098;6.168;2023-05-02T14:18:23;3.37;;;0.57;;
55720;SDS011;41626;53.098;6.168;2023-05-02T14:20:48;4.57;;;0.93;;
55720;SDS011;41626;53.098;6.168;2023-05-02T14:23:14;3.55;;;0.63;;
55720;SDS011;41626;53.098;6.168;2023-05-02T14:25:40;4.82;;;0.70;;
55720;SDS011;41626;53.098;6.168;2023-05-02T14:28:06;5.85;;;1.77;;
55720;SDS011;41626;53.098;6.168;2023-05-02T14:30:31;4.78;;;0.63;;
55720;SDS011;41626;53.098;6.168;2023-05-02T14:32:57;5.32;;;0.98;;
55720;SDS011;41626;53.098;6.168;2023-05-02T14:35:23;3.73;;;1.00;;
55720;SDS011;41626;53.098;6.168;2023-05-02T14:37:48;4.60;;;1.23;;
55720;SDS011;41626;53.098;6.168;2023-05-02T14:40:14;3.87;;;0.70;;
55720;SDS011;41626;53.098;6.168;2023-05-02T14:42:40;4.50;;;0.80;;
55720;SDS011;41626;53.098;6.168;2023-05-02T14:45:06;7.13;;;1.10;;
55720;SDS011;41626;53.098;6.168;2023-05-02T14:47:33;3.13;;;0.85;;
55720;SDS011;41626;53.098;6.168;2023-05-02T14:49:58;9.97;;;1.63;;
55720;SDS011;41626;53.098;6.168;2023-05-02T14:52:25;3.22;;;0.70;;
55720;SDS011;41626;53.098;6.168;2023-05-02T14:54:51;3.78;;;1.00;;
55720;SDS011;41626;53.098;6.168;2023-05-02T14:57:17;4.50;;;1.15;;
55720;SDS011;41626;53.098;6.168;2023-05-02T14:59:43;7.20;;;1.20;;
55720;SDS011;41626;53.098;6.168;2023-05-02T15:02:09;13.10;;;2.08;;
55720;SDS011;41626;53.098;6.168;2023-05-02T15:04:34;4.65;;;0.95;;
55720;SDS011;41626;53.098;6.168;2023-05-02T15:07:00;6.60;;;0.90;;
55720;SDS011;41626;53.098;6.168;2023-05-02T15:09:26;6.10;;;0.80;;
55720;SDS011;41626;53.098;6.168;2023-05-02T15:11:53;5.10;;;0.73;;
55720;SDS011;41626;53.098;6.168;2023-05-02T15:14:19;2.47;;;0.70;;
55720;SDS011;41626;53.098;6.168;2023-05-02T15:16:45;2.20;;;1.00;;
55720;SDS011;41626;53.098;6.168;2023-05-02T15:19:11;2.10;;;0.65;;
55720;SDS011;41626;53.098;6.168;2023-05-02T15:21:37;10.73;;;1.50;;
55720;SDS011;41626;53.098;6.168;2023-05-02T15:24:02;4.90;;;0.82;;
55720;SDS011;41626;53.098;6.168;2023-05-02T15:26:29;5.53;;;0.73;;
55720;SDS011;41626;53.098;6.168;2023-05-02T15:28:55;6.67;;;0.93;;
55720;SDS011;41626;53.098;6.168;2023-05-02T15:31:21;12.17;;;2.20;;
55720;SDS011;41626;53.098;6.168;2023-05-02T15:33:46;8.93;;;1.50;;
55720;SDS011;41626;53.098;6.168;2023-05-02T15:36:12;4.73;;;0.87;;
55720;SDS011;41626;53.098;6.168;2023-05-02T15:38:38;6.53;;;0.93;;
55720;SDS011;41626;53.098;6.168;2023-05-02T15:41:06;3.60;;;1.05;;